Time;durP1;ratioP1;P1;durP2;ratioP2;P2;SDS_P1;SDS_P2;PMS_P1;PMS_P2;Temp;Humidity;BMP_temperature;BMP_pressure;BME280_temperature;BME280_humidity;BME280_pressure;Samples;Min_cycle;Max_cycle;Signal;HPM_P1;HPM_P2
2023/03/08 00:00:17;;;;;;;0.10;0.10;;;5.30;99.90;;;;;;5040333;28;20195;-86
2023/03/08 00:02:43;;;;;;;0.10;0.10;;;5.30;99.90;;;;;;5042086;28;20681;-86
2023/03/08 00:05:10;;;;;;;0.10;0.10;;;5.30;99.90;;;;;;5041654;28;20207;-85
2023/03/08 00:07:36;;;;;;;0.10;0.10;;;5.30;99.90;;;;;;5041848;28;20751;-85
2023/03/08 00:10:02;;;;;;;0.10;0.10;;;5.20;99.90;;;;;;5041809;28;20187;-85
2023/03/08 00:12:28;;;;;;;0.10;0.10;;;5.20;99.90;;;;;;5043352;28;20190;-86
2023/03/08 00:14:53;;;;;;;0.10;0.10;;;5.20;99.90;;;;;;5043651;28;20293;-86
2023/03/08 00:17:19;;;;;;;0.10;0.10;;;5.20;99.90;;;;;;5044394;28;20225;-87
2023/03/08 00:19:45;;;;;;;0.10;0.10;;;5.20;99.90;;;;;;5046889;28;20179;-86
2023/03/08 00:22:11;;;;;;;0.10;0.10;;;5.00;99.90;;;;;;5045062;28;20202;-86
2023/03/08 00:24:37;;;;;;;0.10;0.10;;;5.10;99.90;;;;;;5039027;28;20293;-87
2023/03/08 00:27:03;;;;;;;0.10;0.10;;;5.10;99.90;;;;;;5034959;28;20211;-88
2023/03/08 00:29:29;;;;;;;0.10;0.10;;;5.10;99.90;;;;;;5040520;28;20195;-87
2023/03/08 00:31:55;;;;;;;0.10;0.10;;;5.10;99.90;;;;;;5041881;28;20191;-87
2023/03/08 00:34:20;;;;;;;0.10;0.10;;;5.10;99.90;;;;;;5040546;28;20217;-87
2023/03/08 00:36:46;;;;;;;0.10;0.10;;;5.10;99.90;;;;;;5038840;28;20254;-86
2023/03/08 00:39:13;;;;;;;0.10;0.10;;;5.10;99.90;;;;;;5043133;28;20238;-86
2023/03/08 00:41:38;;;;;;;0.10;0.10;;;5.00;99.90;;;;;;5041017;28;20190;-87
2023/03/08 00:44:04;;;;;;;0.10;0.10;;;5.10;99.90;;;;;;5042007;28;20220;-87
2023/03/08 00:46:29;;;;;;;0.10;0.10;;;5.10;99.90;;;;;;5043375;28;20705;-87
2023/03/08 00:48:55;;;;;;;0.10;0.10;;;5.00;99.90;;;;;;5043105;28;20175;-86
2023/03/08 00:51:20;;;;;;;0.10;0.10;;;5.00;99.90;;;;;;5042144;28;20191;-86
2023/03/08 00:53:47;;;;;;;0.10;0.10;;;5.00;99.90;;;;;;5042615;28;20664;-86
2023/03/08 00:56:13;;;;;;;0.10;0.10;;;5.10;99.90;;;;;;5044544;28;20264;-87
2023/03/08 00:58:40;;;;;;;0.10;0.10;;;5.10;99.90;;;;;;5043228;28;20659;-87
2023/03/08 01:01:07;;;;;;;0.10;0.10;;;5.10;99.90;;;;;;5049651;28;20197;-87
2023/03/08 01:03:33;;;;;;;0.10;0.10;;;4.90;99.90;;;;;;5049057;28;20214;-87
2023/03/08 01:06:03;;;;;;;0.10;0.10;;;4.70;99.90;;;;;;5051871;28;20192;-87
2023/03/08 01:08:29;;;;;;;0.10;0.10;;;4.50;99.90;;;;;;5052837;28;20268;-88
2023/03/08 01:10:57;;;;;;;0.10;0.10;;;4.50;99.90;;;;;;5045444;28;20273;-85
2023/03/08 01:13:24;;;;;;;0.00;0.00;;;4.60;99.90;;;;;;5047364;28;20191;-84
2023/03/08 01:15:50;;;;;;;0.10;0.10;;;4.40;99.90;;;;;;5047746;28;20199;-84
2023/03/08 01:18:15;;;;;;;0.10;0.10;;;4.40;99.90;;;;;;5044896;28;20194;-88
2023/03/08 01:20:41;;;;;;;0.10;0.10;;;4.50;99.90;;;;;;5045708;28;20192;-87
2023/03/08 01:23:07;;;;;;;0.10;0.10;;;4.50;99.90;;;;;;5045887;28;20219;-87
2023/03/08 01:25:33;;;;;;;0.10;0.10;;;4.20;99.90;;;;;;5045603;28;20210;-86
2023/03/08 01:27:58;;;;;;;0.10;0.10;;;4.10;99.90;;;;;;5044737;28;20256;-88
2023/03/08 01:30:24;;;;;;;0.10;0.10;;;4.20;99.90;;;;;;5045501;28;21349;-87
2023/03/08 01:32:50;;;;;;;0.10;0.10;;;4.30;99.90;;;;;;5043427;28;20803;-87
2023/03/08 01:35:15;;;;;;;0.10;0.10;;;3.90;99.90;;;;;;5042945;28;20206;-87
2023/03/08 01:37:41;;;;;;;0.10;0.10;;;4.00;99.90;;;;;;5043132;28;20307;-86
2023/03/08 01:40:08;;;;;;;0.10;0.10;;;4.10;99.90;;;;;;5043425;28;20190;-87
2023/03/08 01:42:36;;;;;;;0.10;0.10;;;3.90;99.90;;;;;;5043146;28;20178;-87
2023/03/08 01:45:05;;;;;;;0.10;0.10;;;3.80;99.90;;;;;;5038081;28;20208;-86
2023/03/08 01:47:34;;;;;;;0.10;0.10;;;3.90;99.90;;;;;;5045164;28;20220;-87
2023/03/08 01:50:09;;;;;;;0.10;0.10;;;3.80;99.90;;;;;;5043911;28;20269;-86
2023/03/08 01:52:45;;;;;;;0.10;0.10;;;3.70;99.90;;;;;;5045132;28;20941;-87
2023/03/08 01:55:12;;;;;;;0.10;0.10;;;3.60;99.90;;;;;;5044843;28;20189;-86
2023/03/08 01:57:44;;;;;;;0.10;0.10;;;3.70;99.90;;;;;;5043700;28;20223;-86
2023/03/08 02:00:13;;;;;;;0.10;0.10;;;3.80;99.90;;;;;;5045231;28;20230;-87
2023/03/08 02:02:48;;;;;;;0.10;0.10;;;3.80;99.90;;;;;;5045106;28;20630;-86
2023/03/08 02:05:15;;;;;;;0.10;0.10;;;3.90;99.90;;;;;;5041471;28;20194;-87
2023/03/08 02:07:40;;;;;;;0.10;0.10;;;3.80;99.90;;;;;;5045108;28;20220;-88
2023/03/08 02:10:06;;;;;;;0.10;0.10;;;3.80;99.90;;;;;;5045786;28;20194;-87
2023/03/08 02:12:33;;;;;;;0.10;0.10;;;3.90;99.90;;;;;;5043635;28;20272;-87
2023/03/08 02:15:00;;;;;;;0.10;0.10;;;4.10;99.90;;;;;;5044077;28;20182;-86
2023/03/08 02:17:26;;;;;;;0.10;0.10;;;4.00;99.90;;;;;;5044464;28;20209;-87
2023/03/08 02:20:10;;;;;;;0.10;0.10;;;3.90;99.90;;;;;;5042906;28;20282;-87
2023/03/08 02:22:40;;;;;;;0.10;0.10;;;3.80;99.90;;;;;;5042965;28;20186;-88
2023/03/08 02:25:18;;;;;;;0.10;0.10;;;3.70;99.90;;;;;;5044172;28;20240;-87
2023/03/08 02:27:44;;;;;;;0.10;0.10;;;3.80;99.90;;;;;;5046316;28;20674;-86
2023/03/08 02:30:12;;;;;;;0.10;0.10;;;3.60;99.90;;;;;;5042701;28;20194;-87
2023/03/08 02:32:37;;;;;;;0.10;0.10;;;3.50;99.90;;;;;;5043245;28;20265;-87
2023/03/08 02:35:03;;;;;;;0.10;0.10;;;3.50;99.90;;;;;;5040513;28;20217;-87
2023/03/08 02:37:31;;;;;;;0.00;0.00;;;3.50;99.90;;;;;;5041663;28;20207;-88
2023/03/08 02:39:57;;;;;;;0.10;0.10;;;3.50;99.90;;;;;;5043942;28;20281;-87
2023/03/08 02:42:22;;;;;;;0.10;0.10;;;3.50;99.90;;;;;;5046188;28;20766;-87
2023/03/08 02:44:48;;;;;;;0.10;0.10;;;3.50;99.90;;;;;;5045234;28;20206;-88
2023/03/08 02:47:13;;;;;;;0.10;0.10;;;3.50;99.90;;;;;;5042198;28;20230;-87
2023/03/08 02:49:39;;;;;;;0.10;0.10;;;3.40;99.90;;;;;;5043646;28;20192;-87
2023/03/08 02:52:04;;;;;;;0.10;0.10;;;3.50;99.90;;;;;;5043571;28;20320;-87
2023/03/08 02:54:30;;;;;;;0.10;0.10;;;3.40;99.90;;;;;;5043346;28;20197;-86
2023/03/08 02:56:55;;;;;;;0.10;0.10;;;3.40;99.90;;;;;;5045347;28;20213;-87
2023/03/08 02:59:21;;;;;;;0.10;0.10;;;3.30;99.90;;;;;;5045205;28;20198;-86
2023/03/08 03:01:46;;;;;;;0.10;0.10;;;3.30;99.90;;;;;;5041376;28;20208;-87
2023/03/08 03:04:12;;;;;;;0.10;0.10;;;3.40;99.90;;;;;;5038884;28;20211;-86
2023/03/08 03:06:37;;;;;;;0.10;0.10;;;3.40;99.90;;;;;;5043384;28;20202;-87
2023/03/08 03:09:07;;;;;;;0.10;0.10;;;3.40;99.90;;;;;;5043420;28;20178;-87
2023/03/08 03:11:33;;;;;;;0.10;0.10;;;3.30;99.90;;;;;;5044533;28;20229;-87
2023/03/08 03:13:59;;;;;;;0.10;0.10;;;3.30;99.90;;;;;;5044370;28;20197;-87
2023/03/08 03:16:26;;;;;;;0.10;0.10;;;3.40;99.90;;;;;;5043268;28;20205;-88
2023/03/08 03:18:53;;;;;;;0.10;0.10;;;3.40;99.90;;;;;;5039680;28;20213;-87
2023/03/08 03:21:20;;;;;;;0.10;0.10;;;3.30;99.90;;;;;;5040536;28;20183;-87
2023/03/08 03:23:46;;;;;;;0.10;0.10;;;3.40;99.90;;;;;;5042779;28;20237;-86
2023/03/08 03:26:14;;;;;;;0.10;0.10;;;3.40;99.90;;;;;;5042631;28;20233;-87
2023/03/08 03:28:40;;;;;;;0.10;0.10;;;3.30;99.90;;;;;;5043326;28;20173;-86
2023/03/08 03:31:15;;;;;;;0.10;0.10;;;3.20;99.90;;;;;;5040367;28;20247;-88
2023/03/08 03:33:40;;;;;;;0.10;0.10;;;3.40;99.90;;;;;;5050649;28;20653;-86
2023/03/08 03:36:09;;;;;;;0.10;0.10;;;3.70;99.90;;;;;;5040338;28;20303;-87
2023/03/08 03:38:35;;;;;;;0.10;0.10;;;3.80;99.90;;;;;;5043522;28;20696;-87
2023/03/08 03:41:28;;;;;;;0.10;0.10;;;3.80;99.90;;;;;;5040171;28;20561;-87
2023/03/08 03:43:53;;;;;;;0.10;0.10;;;4.00;99.90;;;;;;5038469;28;20213;-88
2023/03/08 03:46:20;;;;;;;0.10;0.10;;;4.00;99.90;;;;;;5043364;28;20226;-88
2023/03/08 03:48:46;;;;;;;0.10;0.10;;;4.00;99.90;;;;;;5044666;28;20195;-85
2023/03/08 03:51:14;;;;;;;0.10;0.10;;;3.90;99.90;;;;;;5044508;28;20194;-86
2023/03/08 03:53:39;;;;;;;0.10;0.10;;;4.00;99.90;;;;;;5052822;28;20201;-86
2023/03/08 03:56:09;;;;;;;0.03;0.03;;;4.10;99.90;;;;;;5047921;28;20213;-87
2023/03/08 03:58:34;;;;;;;0.10;0.10;;;3.80;99.90;;;;;;5043092;28;20186;-88
2023/03/08 04:01:00;;;;;;;0.10;0.10;;;3.50;99.90;;;;;;5048320;28;20208;-88
2023/03/08 04:03:26;;;;;;;0.10;0.10;;;3.70;99.90;;;;;;5047353;28;20224;-87
2023/03/08 04:05:52;;;;;;;0.10;0.10;;;3.70;99.90;;;;;;5061246;28;20202;-88
2023/03/08 04:08:18;;;;;;;0.10;0.10;;;3.90;99.90;;;;;;5044514;28;20246;-86
2023/03/08 04:10:43;;;;;;;0.10;0.10;;;3.80;99.90;;;;;;5045189;28;20192;-88
2023/03/08 04:13:12;;;;;;;0.10;0.10;;;4.10;99.90;;;;;;5045171;28;20188;-88
2023/03/08 04:15:37;;;;;;;0.10;0.10;;;3.90;99.90;;;;;;5045143;28;20190;-87
2023/03/08 04:18:03;;;;;;;0.10;0.10;;;3.70;99.90;;;;;;5044903;28;20198;-87
2023/03/08 04:20:29;;;;;;;0.10;0.10;;;3.50;99.90;;;;;;5041382;28;20264;-88
2023/03/08 04:22:54;;;;;;;0.10;0.10;;;3.50;99.90;;;;;;5041073;28;20204;-86
2023/03/08 04:25:20;;;;;;;0.10;0.10;;;3.60;99.90;;;;;;5046151;28;20528;-87
2023/03/08 04:27:45;;;;;;;0.10;0.10;;;3.50;99.90;;;;;;5041204;28;20609;-86
2023/03/08 04:30:12;;;;;;;0.10;0.10;;;3.50;99.90;;;;;;5051674;28;20189;-88
2023/03/08 04:32:38;;;;;;;0.07;0.07;;;3.50;99.90;;;;;;5047187;28;20187;-88
2023/03/08 04:35:04;;;;;;;0.10;0.10;;;3.40;99.90;;;;;;5047607;28;20235;-87
2023/03/08 04:37:29;;;;;;;0.10;0.10;;;3.40;99.90;;;;;;5049250;28;20220;-87
2023/03/08 04:39:55;;;;;;;0.10;0.10;;;3.40;99.90;;;;;;5049710;28;20186;-86
2023/03/08 04:42:21;;;;;;;0.10;0.10;;;3.50;99.90;;;;;;5049421;28;20189;-87
2023/03/08 04:44:46;;;;;;;0.10;0.10;;;3.50;99.90;;;;;;5044322;28;20653;-87
2023/03/08 04:47:12;;;;;;;0.10;0.10;;;3.70;99.90;;;;;;5056674;28;20220;-88
2023/03/08 04:49:37;;;;;;;0.10;0.10;;;3.70;99.90;;;;;;5060185;28;20201;-88
2023/03/08 04:52:03;;;;;;;0.00;0.00;;;3.90;99.90;;;;;;5056721;28;20187;-87
2023/03/08 04:54:29;;;;;;;0.10;0.10;;;4.00;99.90;;;;;;5059014;28;20194;-88
2023/03/08 04:56:54;;;;;;;0.10;0.10;;;4.10;99.90;;;;;;5056004;28;20234;-87
2023/03/08 04:59:20;;;;;;;0.10;0.10;;;4.20;99.90;;;;;;5056078;28;20226;-86
2023/03/08 05:01:46;;;;;;;0.10;0.10;;;4.40;99.90;;;;;;5049988;28;20201;-88
2023/03/08 05:04:11;;;;;;;0.00;0.00;;;4.30;99.90;;;;;;5045797;28;20208;-87
2023/03/08 05:06:37;;;;;;;0.10;0.10;;;4.30;99.90;;;;;;5043976;28;20208;-88
2023/03/08 05:09:03;;;;;;;0.00;0.00;;;4.10;99.90;;;;;;5049451;28;20220;-88
2023/03/08 05:11:29;;;;;;;0.03;0.03;;;4.10;99.90;;;;;;5043231;28;20579;-88
2023/03/08 05:13:56;;;;;;;0.10;0.10;;;4.10;99.90;;;;;;5048620;28;20194;-87
2023/03/08 05:16:23;;;;;;;0.10;0.10;;;4.00;99.90;;;;;;5045848;28;20197;-88
2023/03/08 05:18:48;;;;;;;0.10;0.10;;;4.00;99.90;;;;;;5062697;28;20277;-88
2023/03/08 05:21:20;;;;;;;0.10;0.10;;;4.00;99.90;;;;;;5045035;28;20629;-87
2023/03/08 05:23:46;;;;;;;0.10;0.10;;;3.80;99.90;;;;;;5046876;28;20212;-88
2023/03/08 05:26:14;;;;;;;0.10;0.10;;;4.00;99.90;;;;;;5049338;28;20207;-88
2023/03/08 05:28:40;;;;;;;0.00;0.00;;;4.00;99.90;;;;;;5045851;28;20310;-86
2023/03/08 05:31:18;;;;;;;0.00;0.00;;;4.00;99.90;;;;;;5049891;28;20193;-88
2023/03/08 05:33:49;;;;;;;0.00;0.00;;;4.10;99.90;;;;;;5048871;28;20193;-86
2023/03/08 05:36:16;;;;;;;0.10;0.10;;;4.30;99.90;;;;;;5041640;28;20207;-88
2023/03/08 05:38:42;;;;;;;0.10;0.10;;;4.50;99.90;;;;;;5046045;28;20201;-88
2023/03/08 05:41:12;;;;;;;0.10;0.10;;;4.60;99.90;;;;;;5047028;28;20191;-87
2023/03/08 05:43:37;;;;;;;0.10;0.10;;;4.70;99.90;;;;;;5045813;28;20263;-87
2023/03/08 05:46:06;;;;;;;0.10;0.10;;;4.80;99.90;;;;;;5045081;28;20203;-87
2023/03/08 05:48:35;;;;;;;0.10;0.10;;;4.80;99.90;;;;;;5045807;28;20665;-87
2023/03/08 05:51:09;;;;;;;0.10;0.10;;;4.80;99.90;;;;;;5043099;28;20774;-86
2023/03/08 05:53:35;;;;;;;0.10;0.10;;;4.80;99.90;;;;;;5047062;28;20193;-86
2023/03/08 05:56:16;;;;;;;0.10;0.10;;;4.70;99.90;;;;;;5048327;28;20679;-86
2023/03/08 05:58:42;;;;;;;0.00;0.00;;;4.80;99.90;;;;;;5048682;28;20979;-86
2023/03/08 06:01:13;;;;;;;0.03;0.03;;;4.70;99.90;;;;;;5050036;28;20652;-86
2023/03/08 06:03:39;;;;;;;0.10;0.10;;;4.80;99.90;;;;;;5051923;28;20203;-85
2023/03/08 06:06:05;;;;;;;0.10;0.10;;;4.80;99.90;;;;;;5053554;28;20730;-86
2023/03/08 06:08:30;;;;;;;0.10;0.10;;;4.90;99.90;;;;;;5048208;28;20214;-86
2023/03/08 06:10:56;;;;;;;0.10;0.10;;;4.90;99.90;;;;;;5049853;28;20194;-86
2023/03/08 06:13:21;;;;;;;0.10;0.10;;;4.90;99.90;;;;;;5064295;28;20561;-86
2023/03/08 06:15:47;;;;;;;0.10;0.10;;;4.90;99.90;;;;;;5047357;28;20196;-87
2023/03/08 06:18:13;;;;;;;0.10;0.10;;;4.90;99.90;;;;;;5039851;28;20189;-88
2023/03/08 06:20:38;;;;;;;0.10;0.10;;;5.00;99.90;;;;;;5038949;28;20190;-84
2023/03/08 06:23:04;;;;;;;0.00;0.00;;;5.00;99.90;;;;;;5046754;28;20535;-84
2023/03/08 06:25:29;;;;;;;0.10;0.10;;;5.10;99.90;;;;;;5044475;28;20199;-84
2023/03/08 06:27:55;;;;;;;0.10;0.10;;;5.10;99.90;;;;;;5043481;28;20210;-84
2023/03/08 06:30:20;;;;;;;0.10;0.10;;;5.10;99.90;;;;;;5041923;28;20189;-84
2023/03/08 06:32:46;;;;;;;0.10;0.10;;;5.00;99.90;;;;;;5043314;28;20182;-84
2023/03/08 06:35:11;;;;;;;0.10;0.10;;;4.90;99.90;;;;;;5045581;28;20272;-83
2023/03/08 06:37:37;;;;;;;0.10;0.10;;;4.80;99.90;;;;;;5058667;28;20210;-84
2023/03/08 06:40:04;;;;;;;0.10;0.10;;;4.80;99.90;;;;;;5044010;28;20655;-84
2023/03/08 06:42:30;;;;;;;0.10;0.10;;;4.80;99.90;;;;;;5045041;28;20286;-84
2023/03/08 06:44:56;;;;;;;0.00;0.00;;;4.80;99.90;;;;;;5043198;28;20215;-83
2023/03/08 06:47:21;;;;;;;0.10;0.10;;;4.70;99.90;;;;;;5043806;28;20206;-84
2023/03/08 06:49:47;;;;;;;0.03;0.03;;;4.70;99.90;;;;;;5045598;28;20185;-84
2023/03/08 06:52:12;;;;;;;0.10;0.10;;;4.80;99.90;;;;;;5041487;28;20196;-84
2023/03/08 06:54:38;;;;;;;0.10;0.10;;;4.80;99.90;;;;;;5039289;28;20524;-83
2023/03/08 06:57:03;;;;;;;0.10;0.10;;;4.90;99.90;;;;;;5043446;28;20244;-84
2023/03/08 06:59:29;;;;;;;0.10;0.10;;;5.00;99.90;;;;;;5043752;28;20371;-84
2023/03/08 07:01:54;;;;;;;0.10;0.10;;;5.00;99.90;;;;;;5041869;28;20663;-84
2023/03/08 07:04:20;;;;;;;0.10;0.10;;;5.00;99.90;;;;;;5045027;28;20316;-84
2023/03/08 07:06:46;;;;;;;0.10;0.10;;;5.10;99.90;;;;;;5043390;28;20198;-85
2023/03/08 07:09:12;;;;;;;0.10;0.10;;;5.00;99.90;;;;;;5046128;28;20224;-81
2023/03/08 07:11:38;;;;;;;0.10;0.10;;;5.10;99.90;;;;;;5045495;28;20185;-82
2023/03/08 07:14:03;;;;;;;0.07;0.07;;;5.00;99.90;;;;;;5047669;28;20285;-83
2023/03/08 07:16:29;;;;;;;0.10;0.10;;;5.10;99.90;;;;;;5043373;28;22055;-83
2023/03/08 07:18:55;;;;;;;0.10;0.10;;;5.10;99.90;;;;;;5042603;28;20191;-83
2023/03/08 07:21:21;;;;;;;0.10;0.10;;;5.20;99.90;;;;;;5044017;28;20563;-83
2023/03/08 07:23:50;;;;;;;0.10;0.10;;;5.20;99.90;;;;;;5042590;28;20298;-83
2023/03/08 07:26:15;;;;;;;0.10;0.10;;;5.10;99.90;;;;;;5046553;28;20304;-83
2023/03/08 07:28:41;;;;;;;0.10;0.10;;;5.00;99.90;;;;;;5045189;28;20271;-83
2023/03/08 07:31:10;;;;;;;0.10;0.10;;;5.00;99.90;;;;;;5035979;28;20521;-87
2023/03/08 07:33:36;;;;;;;0.00;0.00;;;5.00;99.90;;;;;;5043146;28;20210;-86
2023/03/08 07:36:01;;;;;;;0.10;0.10;;;4.90;99.90;;;;;;5039992;28;20229;-86
2023/03/08 07:38:27;;;;;;;0.10;0.10;;;4.80;99.90;;;;;;5041209;28;20610;-87
2023/03/08 07:40:54;;;;;;;0.10;0.10;;;4.70;99.90;;;;;;5040927;28;20253;-85
2023/03/08 07:43:20;;;;;;;0.10;0.10;;;4.70;99.90;;;;;;5044648;28;20301;-83
2023/03/08 07:45:46;;;;;;;0.10;0.10;;;4.50;99.90;;;;;;5045591;28;20192;-84
2023/03/08 07:48:11;;;;;;;0.10;0.10;;;4.50;99.90;;;;;;5046090;28;20189;-83
2023/03/08 07:50:37;;;;;;;0.10;0.10;;;4.50;99.90;;;;;;5042304;28;20257;-83
2023/03/08 07:53:03;;;;;;;0.10;0.10;;;4.60;99.90;;;;;;5043964;28;20190;-84
2023/03/08 07:55:28;;;;;;;0.10;0.10;;;4.50;99.90;;;;;;5037647;28;20546;-84
2023/03/08 07:57:54;;;;;;;0.10;0.10;;;4.50;99.90;;;;;;5042379;28;20205;-83
2023/03/08 08:00:20;;;;;;;0.00;0.00;;;4.40;99.90;;;;;;5041057;28;20945;-83
2023/03/08 08:02:46;;;;;;;0.10;0.10;;;4.40;99.90;;;;;;5044131;28;20213;-84
2023/03/08 08:05:12;;;;;;;0.03;0.03;;;4.40;99.90;;;;;;5046278;28;20213;-82
2023/03/08 08:07:38;;;;;;;0.10;0.10;;;4.40;99.90;;;;;;5043407;28;20293;-84
2023/03/08 08:10:04;;;;;;;0.10;0.10;;;4.40;99.90;;;;;;5049802;28;20716;-84
2023/03/08 08:12:30;;;;;;;0.10;0.10;;;4.40;99.90;;;;;;5047053;28;20208;-84
2023/03/08 08:14:56;;;;;;;0.10;0.10;;;4.50;99.90;;;;;;5041849;28;20272;-83
2023/03/08 08:17:22;;;;;;;0.10;0.10;;;4.50;99.90;;;;;;5043806;28;20205;-82
2023/03/08 08:19:48;;;;;;;0.10;0.10;;;4.30;99.90;;;;;;5044378;28;20261;-85
2023/03/08 08:22:13;;;;;;;0.10;0.10;;;4.30;99.90;;;;;;5041908;28;20204;-86
2023/03/08 08:24:39;;;;;;;0.10;0.10;;;4.30;99.90;;;;;;5040332;28;21253;-86
2023/03/08 08:27:05;;;;;;;0.10;0.10;;;4.30;99.90;;;;;;5045255;28;20248;-86
2023/03/08 08:29:30;;;;;;;0.10;0.10;;;4.30;99.90;;;;;;5047733;28;20644;-86
2023/03/08 08:31:56;;;;;;;0.10;0.10;;;4.30;99.90;;;;;;5044608;28;20775;-86
2023/03/08 08:34:22;;;;;;;0.10;0.10;;;4.30;99.90;;;;;;5048647;28;20189;-85
2023/03/08 08:36:48;;;;;;;0.10;0.10;;;4.30;99.90;;;;;;5047042;28;20726;-86
2023/03/08 08:39:13;;;;;;;0.10;0.10;;;4.30;99.90;;;;;;5077202;28;20248;-87
2023/03/08 08:41:39;;;;;;;0.10;0.10;;;4.20;99.90;;;;;;5052790;28;20239;-87
2023/03/08 08:44:05;;;;;;;0.10;0.10;;;4.20;99.90;;;;;;5042312;28;20259;-87
2023/03/08 08:46:33;;;;;;;0.10;0.10;;;4.20;99.90;;;;;;5040249;28;20988;-85
2023/03/08 08:48:58;;;;;;;0.10;0.10;;;4.20;99.90;;;;;;5041619;28;20218;-86
2023/03/08 08:51:25;;;;;;;0.10;0.10;;;4.20;99.90;;;;;;5044141;28;20721;-86
2023/03/08 08:53:51;;;;;;;0.10;0.10;;;4.20;99.90;;;;;;5044318;28;20190;-86
2023/03/08 08:56:22;;;;;;;0.10;0.10;;;4.30;99.90;;;;;;5043769;28;20267;-86
2023/03/08 08:58:48;;;;;;;0.10;0.10;;;4.30;99.90;;;;;;5040707;28;20185;-86
2023/03/08 09:01:19;;;;;;;0.10;0.10;;;4.30;99.90;;;;;;5043190;28;20204;-86
2023/03/08 09:03:46;;;;;;;0.00;0.00;;;4.30;99.90;;;;;;5043025;28;20209;-86
2023/03/08 09:06:12;;;;;;;0.03;0.03;;;4.30;99.90;;;;;;5042853;28;20294;-87
2023/03/08 09:08:38;;;;;;;0.10;0.10;;;4.30;99.90;;;;;;5045740;28;20192;-85
2023/03/08 09:11:09;;;;;;;0.10;0.10;;;4.30;99.90;;;;;;5042363;28;20272;-83
2023/03/08 09:13:37;;;;;;;0.00;0.00;;;4.30;99.90;;;;;;5045516;28;20187;-84
2023/03/08 09:16:03;;;;;;;0.10;0.10;;;4.30;99.90;;;;;;5043461;28;20191;-83
2023/03/08 09:18:28;;;;;;;0.10;0.10;;;4.40;99.90;;;;;;5046545;28;20242;-84
2023/03/08 09:20:54;;;;;;;0.10;0.10;;;4.30;99.90;;;;;;5047058;28;20197;-84
2023/03/08 09:23:20;;;;;;;0.10;0.10;;;4.40;99.90;;;;;;5045144;28;20551;-84
2023/03/08 09:25:54;;;;;;;0.10;0.10;;;4.40;99.90;;;;;;5046783;28;20189;-84
2023/03/08 09:28:20;;;;;;;0.10;0.10;;;4.40;99.90;;;;;;5045713;28;21108;-84
2023/03/08 09:30:46;;;;;;;0.10;0.10;;;4.50;99.90;;;;;;5044521;28;20209;-84
2023/03/08 09:33:11;;;;;;;0.10;0.10;;;4.40;99.90;;;;;;5048736;28;20552;-83
2023/03/08 09:35:37;;;;;;;0.10;0.10;;;4.30;99.90;;;;;;5041964;28;20177;-85
2023/03/08 09:38:03;;;;;;;0.10;0.10;;;4.40;99.90;;;;;;5041269;28;20225;-82
2023/03/08 09:40:36;;;;;;;0.10;0.10;;;4.50;99.90;;;;;;5047224;28;20178;-82
2023/03/08 09:43:05;;;;;;;0.10;0.10;;;4.50;99.90;;;;;;5040810;28;20194;-83
2023/03/08 09:45:32;;;;;;;0.10;0.10;;;4.40;99.90;;;;;;5043210;28;20197;-83
2023/03/08 09:48:28;;;;;;;0.10;0.10;;;4.40;99.90;;;;;;5044248;28;20205;-83
2023/03/08 09:50:58;;;;;;;0.10;0.10;;;4.50;99.90;;;;;;5046735;28;20174;-82
2023/03/08 09:53:30;;;;;;;0.10;0.10;;;4.50;99.90;;;;;;5045397;28;20186;-83
2023/03/08 09:56:10;;;;;;;0.10;0.10;;;4.60;99.90;;;;;;5044518;28;20182;-83
2023/03/08 09:58:47;;;;;;;0.10;0.10;;;4.70;99.90;;;;;;5040243;28;20189;-83
2023/03/08 10:01:45;;;;;;;0.10;0.10;;;4.60;99.90;;;;;;5046001;28;20200;-82
2023/03/08 10:04:39;;;;;;;0.10;0.10;;;4.20;99.90;;;;;;5016844;28;20249;-82
2023/03/08 10:07:23;;;;;;;0.10;0.10;;;4.30;99.90;;;;;;5040831;28;20589;-83
2023/03/08 10:10:22;;;;;;;0.10;0.10;;;4.20;99.90;;;;;;5039368;28;20184;-84
2023/03/08 10:13:03;;;;;;;0.10;0.10;;;4.20;99.90;;;;;;5043839;28;20613;-84
2023/03/08 10:15:31;;;;;;;0.10;0.10;;;4.30;99.90;;;;;;5043859;28;21141;-85
2023/03/08 10:18:12;;;;;;;0.10;0.10;;;4.10;99.90;;;;;;5042142;28;20205;-85
2023/03/08 10:20:40;;;;;;;0.10;0.10;;;3.90;99.90;;;;;;5047348;28;21182;-85
2023/03/08 10:23:12;;;;;;;0.10;0.10;;;4.00;99.90;;;;;;5044092;28;20310;-85
2023/03/08 10:25:38;;;;;;;0.10;0.10;;;4.10;99.90;;;;;;5048036;28;20216;-84
2023/03/08 10:28:12;;;;;;;0.10;0.10;;;3.90;99.90;;;;;;5047711;28;20206;-85
2023/03/08 10:30:51;;;;;;;0.10;0.10;;;4.10;99.90;;;;;;5046764;28;20181;-84
2023/03/08 10:33:19;;;;;;;0.10;0.10;;;4.10;99.90;;;;;;5048097;28;20209;-85
2023/03/08 10:35:57;;;;;;;0.00;0.00;;;4.30;99.90;;;;;;5046493;28;20220;-85
2023/03/08 10:38:26;;;;;;;0.10;0.10;;;4.00;99.90;;;;;;5047980;28;20184;-84
2023/03/08 10:41:06;;;;;;;0.10;0.10;;;3.90;99.90;;;;;;5047075;28;20186;-85
2023/03/08 10:43:46;;;;;;;0.10;0.10;;;4.00;99.90;;;;;;5051319;28;20251;-85
2023/03/08 10:46:20;;;;;;;0.10;0.10;;;4.00;99.90;;;;;;5046654;28;20212;-84
2023/03/08 10:51:28;;;;;;;0.00;0.00;;;3.60;99.90;;;;;;5846850;22;20243;-82
2023/03/08 10:53:55;;;;;;;0.10;0.10;;;3.60;99.90;;;;;;5015648;28;20822;-81
2023/03/08 10:56:35;;;;;;;0.10;0.10;;;3.50;99.90;;;;;;5015600;28;20554;-82
2023/03/08 10:59:03;;;;;;;0.03;0.03;;;3.60;99.90;;;;;;5015105;28;20216;-81
2023/03/08 11:01:31;;;;;;;0.00;0.00;;;3.60;99.90;;;;;;5034717;28;20567;-81
2023/03/08 11:04:14;;;;;;;0.10;0.10;;;3.80;99.90;;;;;;5015215;28;20220;-81
2023/03/08 11:06:40;;;;;;;0.10;0.10;;;3.80;99.90;;;;;;5013956;28;20205;-81
2023/03/08 11:09:28;;;;;;;0.10;0.10;;;3.50;99.90;;;;;;5014640;28;20593;-81
2023/03/08 11:11:55;;;;;;;0.10;0.10;;;3.60;99.90;;;;;;5018772;28;20485;-81
2023/03/08 11:14:21;;;;;;;0.10;0.10;;;3.60;99.90;;;;;;5032707;28;20539;-80
2023/03/08 11:16:57;;;;;;;0.10;0.10;;;3.80;99.90;;;;;;5017202;28;20264;-81
2023/03/08 11:19:38;;;;;;;0.10;0.10;;;3.90;99.90;;;;;;5035269;28;20182;-82
2023/03/08 11:22:06;;;;;;;0.10;0.10;;;3.90;99.90;;;;;;5018683;28;20224;-81
2023/03/08 11:24:51;;;;;;;0.10;0.10;;;3.80;99.90;;;;;;5019638;28;20249;-80
2023/03/08 11:27:42;;;;;;;0.10;0.10;;;3.50;99.90;;;;;;5016556;28;20257;-81
2023/03/08 11:30:55;;;;;;;0.10;0.10;;;3.70;99.90;;;;;;5018277;28;20181;-81
2023/03/08 11:34:08;;;;;;;0.10;0.10;;;3.80;99.90;;;;;;5014046;28;20199;-81
2023/03/08 11:36:59;;;;;;;0.10;0.10;;;4.20;99.90;;;;;;5005009;28;20210;-81
2023/03/08 11:39:31;;;;;;;0.10;0.10;;;4.40;99.90;;;;;;5016611;28;20296;-80
2023/03/08 11:42:32;;;;;;;0.10;0.10;;;4.20;99.90;;;;;;5015742;28;20174;-80
2023/03/08 11:45:19;;;;;;;0.10;0.10;;;4.10;99.90;;;;;;5036143;28;20227;-81
2023/03/08 11:48:08;;;;;;;0.10;0.10;;;4.40;99.90;;;;;;5018723;28;20841;-81
2023/03/08 11:50:47;;;;;;;0.10;0.10;;;4.70;99.90;;;;;;5031816;28;20758;-81
2023/03/08 11:53:24;;;;;;;0.10;0.10;;;4.90;99.90;;;;;;5015239;28;20277;-81
2023/03/08 11:56:08;;;;;;;0.10;0.10;;;5.00;99.90;;;;;;5034111;28;20654;-79
2023/03/08 11:58:47;;;;;;;0.10;0.10;;;5.10;99.90;;;;;;5016306;28;20180;-81
2023/03/08 12:01:26;;;;;;;0.10;0.10;;;5.10;99.90;;;;;;5016234;28;20182;-81
2023/03/08 12:03:59;;;;;;;0.10;0.10;;;5.30;99.90;;;;;;5016255;28;20326;-81
2023/03/08 12:06:45;;;;;;;0.10;0.10;;;5.10;99.90;;;;;;5015978;28;20199;-81
2023/03/08 12:09:47;;;;;;;0.10;0.10;;;5.20;99.90;;;;;;5028509;28;20185;-81
2023/03/08 12:12:23;;;;;;;0.10;0.10;;;5.30;99.90;;;;;;5012634;28;20197;-82
2023/03/08 12:15:13;;;;;;;0.10;0.10;;;5.20;99.90;;;;;;5017054;28;20182;-82
2023/03/08 12:17:44;;;;;;;0.10;0.10;;;5.20;99.90;;;;;;5014716;28;20247;-82
2023/03/08 12:20:15;;;;;;;0.10;0.10;;;5.40;99.90;;;;;;5026253;28;20213;-82
2023/03/08 12:22:59;;;;;;;0.10;0.10;;;5.60;99.90;;;;;;5044592;28;20205;-81
2023/03/08 12:25:30;;;;;;;0.10;0.10;;;5.40;99.90;;;;;;5022245;28;20215;-82
2023/03/08 12:28:16;;;;;;;0.10;0.10;;;5.50;99.90;;;;;;5018331;28;20948;-81
2023/03/08 12:31:12;;;;;;;0.10;0.10;;;5.70;99.90;;;;;;5017985;28;20198;-81
2023/03/08 12:33:38;;;;;;;0.10;0.10;;;5.80;99.90;;;;;;5023686;28;21241;-82
2023/03/08 12:36:06;;;;;;;0.10;0.10;;;5.80;99.90;;;;;;5017179;28;20207;-82
2023/03/08 12:38:43;;;;;;;0.10;0.10;;;5.50;99.90;;;;;;5019323;28;20203;-81
2023/03/08 12:41:23;;;;;;;0.10;0.10;;;5.50;99.90;;;;;;5018988;28;20230;-81
2023/03/08 12:44:05;;;;;;;0.10;0.10;;;5.60;99.90;;;;;;5015754;28;20212;-81
2023/03/08 12:46:52;;;;;;;0.10;0.10;;;5.40;99.90;;;;;;5019794;28;20390;-80
2023/03/08 12:49:32;;;;;;;0.10;0.10;;;5.50;99.90;;;;;;5026040;28;20211;-81
2023/03/08 12:52:29;;;;;;;0.10;0.10;;;5.60;99.90;;;;;;5016964;28;20191;-80
2023/03/08 12:55:05;;;;;;;0.10;0.10;;;5.80;99.90;;;;;;5015256;28;20202;-81
2023/03/08 12:57:36;;;;;;;0.10;0.10;;;6.00;99.90;;;;;;5023974;28;20215;-81
2023/03/08 13:00:27;;;;;;;0.10;0.10;;;6.10;99.90;;;;;;5025665;28;20786;-80
2023/03/08 13:03:24;;;;;;;0.10;0.10;;;6.00;99.90;;;;;;5045005;28;20250;-80
2023/03/08 13:05:50;;;;;;;0.10;0.10;;;5.50;99.90;;;;;;5027807;28;20197;-81
2023/03/08 13:08:30;;;;;;;0.10;0.10;;;5.40;99.90;;;;;;5052338;28;20332;-80
2023/03/08 13:11:10;;;;;;;0.10;0.10;;;5.50;99.90;;;;;;5028218;28;20185;-82
2023/03/08 13:14:25;;;;;;;0.10;0.10;;;5.70;99.90;;;;;;5020646;28;20201;-81